createdAt,value
2022-12-06T00:01:25.330Z,95175.06
2022-12-06T00:03:54.247Z,95171.69
2022-12-06T00:06:22.997Z,95170.16
2022-12-06T00:08:50.720Z,95168.34
2022-12-06T00:11:20.634Z,95165.59
2022-12-06T00:13:48.008Z,95169.66
2022-12-06T00:16:16.854Z,95162.66
2022-12-06T00:18:45.148Z,95159.47
2022-12-06T00:21:22.092Z,95164.03
2022-12-06T00:23:54.026Z,95164.31
2022-12-06T00:26:21.391Z,95167.59
2022-12-06T00:28:48.371Z,95164.94
2022-12-06T00:31:20.376Z,95157.13
2022-12-06T00:33:47.745Z,95149.50
2022-12-06T00:36:17.880Z,95153.75
2022-12-06T00:38:45.182Z,95152.53
2022-12-06T00:41:14.486Z,95152.78
2022-12-06T00:43:41.471Z,95147.28
2022-12-06T00:46:11.869Z,95151.09
2022-12-06T00:48:38.482Z,95158.09
2022-12-06T00:51:05.403Z,95148.28
2022-12-06T00:53:32.059Z,95160.56
2022-12-06T00:55:58.603Z,95157.09
2022-12-06T00:58:25.482Z,95164.56
2022-12-06T01:00:52.214Z,95165.03
2022-12-06T01:03:19.114Z,95163.13
2022-12-06T01:05:49.068Z,95156.94
2022-12-06T01:08:17.332Z,95160.03
2022-12-06T01:10:54.888Z,95155.75
2022-12-06T01:13:21.718Z,95151.28
2022-12-06T01:15:49.922Z,95150.00
2022-12-06T01:18:16.482Z,95152.16
2022-12-06T01:20:43.128Z,95152.09
2022-12-06T01:23:09.672Z,95148.00
2022-12-06T01:25:36.735Z,95157.31
2022-12-06T01:28:03.720Z,95152.16
2022-12-06T01:30:30.535Z,95150.19
2022-12-06T01:32:57.175Z,95153.16
2022-12-06T01:35:23.765Z,95151.22
2022-12-06T01:37:50.320Z,95145.31
2022-12-06T01:40:16.977Z,95140.31
2022-12-06T01:42:43.538Z,95141.03
2022-12-06T01:45:10.531Z,95141.69
2022-12-06T01:47:40.870Z,95141.41
2022-12-06T01:50:24.893Z,95137.69
2022-12-06T01:52:57.507Z,95135.59
2022-12-06T01:55:27.968Z,95139.41
2022-12-06T01:58:00.720Z,95141.84
2022-12-06T02:00:27.306Z,95142.69
2022-12-06T02:02:55.844Z,95142.31
2022-12-06T02:05:22.455Z,95133.69
2022-12-06T02:07:49.470Z,95128.91
2022-12-06T02:10:16.457Z,95129.78
2022-12-06T02:12:43.349Z,95129.28
2022-12-06T02:15:10.579Z,95127.00
2022-12-06T02:18:05.671Z,95128.13
2022-12-06T02:20:39.679Z,95123.25
2022-12-06T02:23:18.112Z,95116.25
2022-12-06T02:25:44.642Z,95110.22
2022-12-06T02:28:26.586Z,95106.69
2022-12-06T02:30:56.203Z,95101.84
2022-12-06T02:33:25.411Z,95102.66
2022-12-06T02:36:05.660Z,95094.66
2022-12-06T02:38:35.075Z,95092.56
2022-12-06T02:41:09.952Z,95094.66
2022-12-06T02:43:48.358Z,95091.66
2022-12-06T02:46:19.843Z,95094.41
2022-12-06T02:48:52.134Z,95091.16
2022-12-06T02:51:20.671Z,95095.78
2022-12-06T02:53:52.030Z,95092.31
2022-12-06T02:56:19.842Z,95090.41
2022-12-06T02:58:46.891Z,95092.66
2022-12-06T03:01:34.862Z,95094.72
2022-12-06T03:04:07.406Z,95101.16
2022-12-06T03:06:56.008Z,95090.47
2022-12-06T03:10:03.812Z,95098.19
2022-12-06T03:12:45.815Z,95089.25
2022-12-06T03:15:51.869Z,95092.81
2022-12-06T03:18:20.175Z,95089.25
2022-12-06T03:20:52.689Z,95096.16
2022-12-06T03:23:27.930Z,95089.25
2022-12-06T03:25:58.578Z,95086.09
2022-12-06T03:28:26.442Z,95085.44
2022-12-06T03:30:57.722Z,95081.09
2022-12-06T03:33:28.011Z,95081.75
2022-12-06T03:35:57.719Z,95079.13
2022-12-06T03:38:52.973Z,95079.47
2022-12-06T03:41:21.956Z,95082.63
2022-12-06T03:43:48.541Z,95076.00
2022-12-06T03:46:19.137Z,95067.59
2022-12-06T03:48:53.281Z,95065.47
2022-12-06T03:51:28.294Z,95069.88
2022-12-06T03:53:58.974Z,95076.50
2022-12-06T03:56:27.927Z,95071.78
2022-12-06T03:58:54.615Z,95074.84
2022-12-06T04:01:21.304Z,95076.81
2022-12-06T04:03:48.102Z,95072.72
2022-12-06T04:06:15.162Z,95077.97
2022-12-06T04:08:41.780Z,95081.31
2022-12-06T04:11:08.356Z,95081.66
2022-12-06T04:13:35.753Z,95075.94
2022-12-06T04:16:02.467Z,95076.28
2022-12-06T04:18:29.577Z,95079.88
2022-12-06T04:21:20.508Z,95075.63
2022-12-06T04:23:51.925Z,95075.06
2022-12-06T04:26:20.988Z,95070.50
2022-12-06T04:29:07.094Z,95058.97
2022-12-06T04:31:52.192Z,95062.66
2022-12-06T04:34:37.560Z,95072.84
2022-12-06T04:37:23.073Z,95070.91
2022-12-06T04:39:49.865Z,95062.56
2022-12-06T04:42:35.541Z,95064.19
2022-12-06T04:45:02.388Z,95050.78
2022-12-06T04:47:29.189Z,95054.31
2022-12-06T04:49:55.754Z,95052.66
2022-12-06T04:52:22.424Z,95062.34
2022-12-06T04:54:49.027Z,95060.19
2022-12-06T04:57:16.764Z,95065.75
2022-12-06T04:59:46.144Z,95066.47
2022-12-06T05:02:15.012Z,95066.66
2022-12-06T05:04:41.921Z,95066.22
2022-12-06T05:07:09.844Z,95067.13
2022-12-06T05:09:36.435Z,95063.78
2022-12-06T05:12:03.042Z,95059.69
2022-12-06T05:14:29.633Z,95065.06
2022-12-06T05:16:56.233Z,95066.63
2022-12-06T05:19:22.913Z,95058.63
2022-12-06T05:21:49.449Z,95058.41
2022-12-06T05:24:16.176Z,95059.13
2022-12-06T05:26:42.948Z,95048.19
2022-12-06T05:29:09.824Z,95052.19
2022-12-06T05:31:36.387Z,95056.09
2022-12-06T05:34:03.038Z,95060.94
2022-12-06T05:36:29.620Z,95053.34
2022-12-06T05:38:56.368Z,95055.19
2022-12-06T05:41:23.243Z,95056.84
2022-12-06T05:43:50.335Z,95054.41
2022-12-06T05:46:17.673Z,95056.84
2022-12-06T05:48:44.762Z,95057.81
2022-12-06T05:51:11.499Z,95055.94
2022-12-06T05:53:38.112Z,95054.31
2022-12-06T05:56:06.769Z,95049.41
2022-12-06T05:58:33.470Z,95051.94
2022-12-06T06:01:00.074Z,95050.97
2022-12-06T06:03:27.116Z,95050.53
2022-12-06T06:05:58.308Z,95056.28
2022-12-06T06:08:25.119Z,95051.59
2022-12-06T06:10:51.695Z,95056.09
2022-12-06T06:13:18.300Z,95048.00
2022-12-06T06:15:44.949Z,95043.34
2022-12-06T06:18:11.511Z,95050.63
2022-12-06T06:20:38.072Z,95053.25
2022-12-06T06:23:04.644Z,95057.72
2022-12-06T06:25:31.191Z,95056.44
2022-12-06T06:27:57.877Z,95051.59
2022-12-06T06:30:24.421Z,95057.31
2022-12-06T06:32:51.009Z,95053.50
2022-12-06T06:35:17.628Z,95053.16
2022-12-06T06:37:44.251Z,95055.19
2022-12-06T06:40:11.454Z,95047.88
2022-12-06T06:42:38.544Z,95051.03
2022-12-06T06:45:06.353Z,95045.34
2022-12-06T06:47:32.922Z,95046.06
2022-12-06T06:49:59.661Z,95042.72
2022-12-06T06:52:26.404Z,95045.88
2022-12-06T06:54:53.283Z,95051.03
2022-12-06T06:57:20.041Z,95050.03
2022-12-06T06:59:46.937Z,95048.84
2022-12-06T07:02:14.875Z,95055.88
2022-12-06T07:04:42.361Z,95057.09
2022-12-06T07:07:09.215Z,95058.16
2022-12-06T07:09:35.883Z,95055.94
2022-12-06T07:12:02.414Z,95057.16
2022-12-06T07:14:29.194Z,95067.31
2022-12-06T07:16:55.820Z,95065.34
2022-12-06T07:19:22.439Z,95065.84
2022-12-06T07:21:49.159Z,95066.56
2022-12-06T07:24:15.729Z,95064.88
2022-12-06T07:26:42.370Z,95060.53
2022-12-06T07:29:08.963Z,95073.25
2022-12-06T07:31:35.732Z,95062.97
2022-12-06T07:34:03.382Z,95066.25
2022-12-06T07:36:32.111Z,95054.69
2022-12-06T07:39:00.065Z,95058.69
2022-12-06T07:41:47.601Z,95061.13
2022-12-06T07:44:55.469Z,95055.91
2022-12-06T07:47:24.898Z,95059.88
2022-12-06T07:49:54.341Z,95053.81
2022-12-06T07:52:20.902Z,95051.81
2022-12-06T07:54:47.483Z,95055.69
2022-12-06T07:57:14.079Z,95052.22
2022-12-06T07:59:40.664Z,95055.03
2022-12-06T08:02:16.628Z,95056.09
2022-12-06T08:04:43.398Z,95055.75
2022-12-06T08:07:10.300Z,95054.63
2022-12-06T08:09:36.936Z,95059.28
2022-12-06T08:12:03.625Z,95055.47
2022-12-06T08:14:30.419Z,95055.25
2022-12-06T08:16:56.957Z,95053.56
2022-12-06T08:19:23.492Z,95051.38
2022-12-06T08:21:50.228Z,95052.72
2022-12-06T08:24:16.896Z,95051.38
2022-12-06T08:26:43.714Z,95046.28
2022-12-06T08:29:10.358Z,95045.38
2022-12-06T08:31:37.082Z,95046.78
2022-12-06T08:34:04.444Z,95044.75
2022-12-06T08:36:31.305Z,95046.97
2022-12-06T08:39:00.296Z,95044.09
2022-12-06T08:41:45.880Z,95055.72
2022-12-06T08:44:14.361Z,95048.16
2022-12-06T08:46:41.349Z,95050.44
2022-12-06T08:49:08.175Z,95050.03
2022-12-06T08:51:36.826Z,95046.19
2022-12-06T08:54:04.317Z,95050.56
2022-12-06T08:56:31.301Z,95050.78
2022-12-06T08:58:58.177Z,95055.16
2022-12-06T09:01:35.939Z,95054.81
2022-12-06T09:04:06.351Z,95057.09
2022-12-06T09:06:33.350Z,95058.91
2022-12-06T09:08:59.873Z,95059.22
2022-12-06T09:11:26.929Z,95061.91
2022-12-06T09:13:53.522Z,95058.47
2022-12-06T09:16:22.609Z,95056.47
2022-12-06T09:18:51.557Z,95061.03
2022-12-06T09:21:21.652Z,95059.47
2022-12-06T09:23:48.302Z,95062.13
2022-12-06T09:26:14.965Z,95051.41
2022-12-06T09:28:43.516Z,95058.13
2022-12-06T09:31:10.973Z,95059.59
2022-12-06T09:33:37.697Z,95059.28
2022-12-06T09:36:13.057Z,95047.38
2022-12-06T09:38:42.462Z,95046.66
2022-12-06T09:41:22.162Z,95058.06
2022-12-06T09:44:07.230Z,95037.66
2022-12-06T09:46:42.877Z,95040.97
2022-12-06T09:49:26.203Z,95045.84
2022-12-06T09:52:11.518Z,95034.78
2022-12-06T09:54:38.892Z,95013.59
2022-12-06T09:57:16.896Z,95012.16
2022-12-06T10:00:11.267Z,95018.41
2022-12-06T10:02:59.833Z,95017.84
2022-12-06T10:05:41.329Z,95015.97
2022-12-06T10:08:32.730Z,95012.28
2022-12-06T10:11:16.203Z,95004.56
2022-12-06T10:13:56.553Z,95007.53
2022-12-06T10:16:48.086Z,95000.28
2022-12-06T10:19:45.525Z,94993.41
2022-12-06T10:22:26.963Z,94993.00
2022-12-06T10:25:20.082Z,95002.88
2022-12-06T10:27:57.926Z,95007.28
2022-12-06T10:30:24.621Z,95002.88
2022-12-06T10:33:05.676Z,94999.53
2022-12-06T10:35:35.386Z,95004.41
2022-12-06T10:38:34.516Z,94999.94
2022-12-06T10:41:33.336Z,94999.00
2022-12-06T10:44:15.135Z,94995.75
2022-12-06T10:47:06.628Z,94986.06
2022-12-06T10:49:39.496Z,94979.03
2022-12-06T10:52:24.435Z,94979.75
2022-12-06T10:55:02.606Z,94969.38
2022-12-06T10:57:37.762Z,94963.56
2022-12-06T11:00:15.022Z,94971.94
2022-12-06T11:02:51.322Z,94971.03
2022-12-06T11:05:26.020Z,94959.81
2022-12-06T11:08:00.923Z,94944.31
2022-12-06T11:10:31.597Z,94955.72
2022-12-06T11:13:16.643Z,94964.06
2022-12-06T11:15:51.258Z,94966.03
2022-12-06T11:18:18.385Z,94973.13
2022-12-06T11:20:58.684Z,94966.69
2022-12-06T11:23:51.054Z,94975.97
2022-12-06T11:26:37.541Z,94974.09
2022-12-06T11:29:10.048Z,94981.28
2022-12-06T11:31:47.220Z,94974.25
2022-12-06T11:34:17.141Z,94971.06
2022-12-06T11:36:46.667Z,94971.13
2022-12-06T11:39:14.785Z,94971.06
2022-12-06T11:41:43.687Z,94971.28
2022-12-06T11:44:18.656Z,94971.25
2022-12-06T11:46:49.948Z,94968.94
2022-12-06T11:49:32.621Z,94969.88
2022-12-06T11:52:04.146Z,94958.34
2022-12-06T11:54:38.788Z,94965.50
2022-12-06T11:57:22.226Z,94960.09
2022-12-06T12:00:07.822Z,94960.19
2022-12-06T12:02:40.413Z,94961.22
2022-12-06T12:05:19.650Z,94956.31
2022-12-06T12:07:58.111Z,94958.59
2022-12-06T12:10:24.759Z,94954.63
2022-12-06T12:13:10.029Z,94952.78
2022-12-06T12:15:37.366Z,94956.84
2022-12-06T12:18:05.638Z,94951.34
2022-12-06T12:20:38.594Z,94941.75
2022-12-06T12:23:22.587Z,94939.22
2022-12-06T12:26:10.140Z,94945.03
2022-12-06T12:28:38.643Z,94937.91
2022-12-06T12:31:15.929Z,94934.19
2022-12-06T12:33:42.525Z,94937.47
2022-12-06T12:36:16.418Z,94934.41
2022-12-06T12:38:56.177Z,94939.47
2022-12-06T12:41:39.376Z,94945.72
2022-12-06T12:44:42.441Z,94937.88
2022-12-06T12:47:20.236Z,94929.91
2022-12-06T12:50:02.185Z,94923.00
2022-12-06T12:52:31.554Z,94914.53
2022-12-06T12:55:18.622Z,94904.97
2022-12-06T12:57:48.834Z,94910.25
2022-12-06T13:00:22.138Z,94921.66
2022-12-06T13:03:01.857Z,94930.72
2022-12-06T13:05:33.943Z,94921.94
2022-12-06T13:08:13.059Z,94920.00
2022-12-06T13:10:43.223Z,94924.06
2022-12-06T13:13:16.984Z,94925.78
2022-12-06T13:15:50.639Z,94921.34
2022-12-06T13:18:23.050Z,94923.28
2022-12-06T13:20:51.503Z,94925.31
2022-12-06T13:23:21.899Z,94909.91
2022-12-06T13:25:59.936Z,94903.41
2022-12-06T13:28:31.534Z,94897.34
2022-12-06T13:31:07.311Z,94890.78
2022-12-06T13:33:39.075Z,94887.28
2022-12-06T13:36:08.139Z,94879.03
2022-12-06T13:38:39.229Z,94889.34
2022-12-06T13:41:13.878Z,94885.56
2022-12-06T13:43:40.416Z,94888.09
2022-12-06T13:46:07.311Z,94884.06
2022-12-06T13:48:37.896Z,94886.06
2022-12-06T13:51:04.552Z,94888.81
2022-12-06T13:53:35.920Z,94887.16
2022-12-06T13:56:24.101Z,94886.31
2022-12-06T13:58:58.808Z,94890.53
2022-12-06T14:01:44.836Z,94876.25
2022-12-06T14:04:23.711Z,94890.34
2022-12-06T14:06:52.978Z,94884.81
2022-12-06T14:09:20.165Z,94887.47
2022-12-06T14:11:46.840Z,94892.66
2022-12-06T14:14:17.656Z,94897.50
2022-12-06T14:16:54.259Z,94900.47
2022-12-06T14:19:50.258Z,94902.25
2022-12-06T14:22:26.723Z,94905.34
2022-12-06T14:24:58.655Z,94911.56
2022-12-06T14:27:27.546Z,94907.53
2022-12-06T14:30:06.488Z,94898.81
2022-12-06T14:32:38.383Z,94895.38
2022-12-06T14:35:10.389Z,94897.31
2022-12-06T14:37:37.146Z,94895.56
2022-12-06T14:40:44.697Z,94891.59
2022-12-06T14:43:17.156Z,94890.69
2022-12-06T14:45:45.218Z,94894.88
2022-12-06T14:48:12.961Z,94887.94
2022-12-06T14:50:56.580Z,94884.78
2022-12-06T14:53:33.247Z,94889.78
2022-12-06T14:56:20.260Z,94890.19
2022-12-06T14:58:47.093Z,94891.13
2022-12-06T15:01:23.452Z,94893.25
2022-12-06T15:04:05.349Z,94901.78
2022-12-06T15:06:32.961Z,94900.72
2022-12-06T15:08:59.481Z,94906.50
2022-12-06T15:11:53.883Z,94900.72
2022-12-06T15:14:27.644Z,94906.22
2022-12-06T15:17:04.704Z,94905.19
2022-12-06T15:19:34.651Z,94912.13
2022-12-06T15:22:01.587Z,94911.41
2022-12-06T15:24:28.989Z,94910.41
2022-12-06T15:26:55.653Z,94905.41
2022-12-06T15:29:23.297Z,94902.28
2022-12-06T15:31:54.844Z,94905.13
2022-12-06T15:34:27.748Z,94902.78
2022-12-06T15:37:15.189Z,94905.44
2022-12-06T15:39:43.023Z,94902.25
2022-12-06T15:42:23.738Z,94895.84
2022-12-06T15:44:51.263Z,94899.31
2022-12-06T15:47:21.001Z,94895.16
2022-12-06T15:49:48.945Z,94898.00
2022-12-06T15:52:17.908Z,94894.84
2022-12-06T15:54:44.910Z,94886.09
2022-12-06T15:57:11.586Z,94894.16
2022-12-06T15:59:38.118Z,94886.78
2022-12-06T16:02:15.443Z,94888.91
2022-12-06T16:04:43.122Z,94885.91
2022-12-06T16:07:10.635Z,94884.66
2022-12-06T16:09:37.536Z,94888.75
2022-12-06T16:12:04.392Z,94882.63
2022-12-06T16:14:30.977Z,94886.78
2022-12-06T16:16:57.551Z,94889.50
2022-12-06T16:19:24.141Z,94884.00
2022-12-06T16:21:53.779Z,94882.97
2022-12-06T16:24:20.726Z,94881.75
2022-12-06T16:26:48.063Z,94882.91
2022-12-06T16:29:23.369Z,94888.22
2022-12-06T16:31:51.430Z,94885.16
2022-12-06T16:34:18.260Z,94885.31
2022-12-06T16:37:06.631Z,94889.78
2022-12-06T16:39:34.216Z,94885.69
2022-12-06T16:42:01.592Z,94899.34
2022-12-06T16:44:28.541Z,94896.16
2022-12-06T16:46:55.229Z,94903.06
2022-12-06T16:52:13.671Z,94897.84
2022-12-06T16:54:41.386Z,94891.84
2022-12-06T16:57:10.158Z,94902.00
2022-12-06T16:59:37.119Z,94901.72
2022-12-06T17:02:07.209Z,94899.59
2022-12-06T17:04:38.187Z,94898.94
2022-12-06T17:07:04.726Z,94899.91
2022-12-06T17:09:31.276Z,94910.66
2022-12-06T17:12:04.333Z,94911.88
2022-12-06T17:14:30.920Z,94916.97
2022-12-06T17:17:00.176Z,94917.69
2022-12-06T17:19:28.270Z,94920.63
2022-12-06T17:21:55.557Z,94914.75
2022-12-06T17:24:23.818Z,94919.03
2022-12-06T17:26:50.518Z,94922.13
2022-12-06T17:29:17.562Z,94928.25
2022-12-06T17:31:44.336Z,94933.22
2022-12-06T17:34:14.266Z,94929.53
2022-12-06T17:36:41.808Z,94928.63
2022-12-06T17:39:15.516Z,94936.44
2022-12-06T17:42:00.620Z,94928.03
2022-12-06T17:44:27.417Z,94930.56
2022-12-06T17:46:54.196Z,94927.72
2022-12-06T17:49:23.145Z,94928.84
2022-12-06T17:51:50.382Z,94929.06
2022-12-06T17:54:18.031Z,94926.50
2022-12-06T17:56:46.937Z,94922.22
2022-12-06T17:59:19.724Z,94927.44
2022-12-06T18:04:34.400Z,94917.97
2022-12-06T18:07:00.919Z,94916.34
2022-12-06T18:09:27.604Z,94907.69
2022-12-06T18:11:55.633Z,94905.84
2022-12-06T18:14:22.254Z,94913.69
2022-12-06T18:16:48.953Z,94915.53
2022-12-06T18:19:17.938Z,94916.63
2022-12-06T18:21:45.007Z,94922.44
2022-12-06T18:24:23.900Z,94926.50
2022-12-06T18:26:53.319Z,94926.81
2022-12-06T18:29:22.944Z,94926.81
2022-12-06T18:31:50.370Z,94923.47
2022-12-06T18:34:17.666Z,94918.44
2022-12-06T18:36:44.297Z,94918.75
2022-12-06T18:39:16.558Z,94924.66
2022-12-06T18:41:44.451Z,94924.28
2022-12-06T18:44:12.448Z,94920.41
2022-12-06T18:46:42.260Z,94920.41
2022-12-06T18:49:11.096Z,94928.72
2022-12-06T18:51:38.776Z,94924.66
2022-12-06T18:54:06.587Z,94931.09
2022-12-06T18:56:34.562Z,94930.69
2022-12-06T18:59:04.039Z,94922.56
2022-12-06T19:01:36.865Z,94931.19
2022-12-06T19:04:05.713Z,94928.94
2022-12-06T19:06:35.261Z,94928.03
2022-12-06T19:09:09.407Z,94934.25
2022-12-06T19:11:38.401Z,94939.22
2022-12-06T19:14:05.120Z,94932.53
2022-12-06T19:16:37.560Z,94937.59
2022-12-06T19:19:11.280Z,94930.19
2022-12-06T19:21:39.505Z,94937.91
2022-12-06T19:24:06.441Z,94934.66
2022-12-06T19:26:33.928Z,94935.28
2022-12-06T19:29:00.523Z,94932.13
2022-12-06T19:31:27.152Z,94928.44
2022-12-06T19:33:54.263Z,94937.19
2022-12-06T19:36:28.626Z,94937.63
2022-12-06T19:38:57.142Z,94928.66
2022-12-06T19:41:24.004Z,94925.19
2022-12-06T19:44:09.160Z,94926.31
2022-12-06T19:46:36.062Z,94934.94
2022-12-06T19:49:06.452Z,94935.66
2022-12-06T19:51:37.848Z,94937.91
2022-12-06T19:54:04.931Z,94936.19
2022-12-06T19:56:31.669Z,94932.22
2022-12-06T19:58:59.298Z,94941.47
2022-12-06T20:01:29.926Z,94931.28
2022-12-06T20:03:57.147Z,94929.06
2022-12-06T20:06:26.339Z,94930.38
2022-12-06T20:08:55.471Z,94927.22
2022-12-06T20:11:42.178Z,94934.47
2022-12-06T20:14:11.274Z,94930.59
2022-12-06T20:16:38.256Z,94928.22
2022-12-06T20:19:07.364Z,94928.34
2022-12-06T20:21:35.030Z,94924.91
2022-12-06T20:24:02.435Z,94928.75
2022-12-06T20:26:31.274Z,94923.56
2022-12-06T20:28:58.630Z,94922.44
2022-12-06T20:31:27.811Z,94924.38
2022-12-06T20:34:02.905Z,94916.81
2022-12-06T20:36:31.850Z,94921.63
2022-12-06T20:38:59.570Z,94925.41
2022-12-06T20:41:30.049Z,94922.13
2022-12-06T20:43:57.527Z,94916.34
2022-12-06T20:46:28.042Z,94915.72
2022-12-06T20:48:55.842Z,94924.91
2022-12-06T20:51:27.239Z,94914.28
2022-12-06T20:53:59.349Z,94914.91
2022-12-06T20:56:29.404Z,94919.47
2022-12-06T20:58:57.851Z,94913.97
2022-12-06T21:01:26.900Z,94916.94
2022-12-06T21:03:54.973Z,94917.53
2022-12-06T21:06:24.000Z,94919.06
2022-12-06T21:08:51.492Z,94918.25
2022-12-06T21:11:24.007Z,94916.44
2022-12-06T21:13:55.695Z,94921.09
2022-12-06T21:16:27.985Z,94913.69
2022-12-06T21:19:16.695Z,94928.22
2022-12-06T21:21:53.296Z,94924.47
2022-12-06T21:24:21.689Z,94931.59
2022-12-06T21:26:49.074Z,94933.66
2022-12-06T21:29:18.172Z,94933.84
2022-12-06T21:31:45.634Z,94930.38
2022-12-06T21:34:15.717Z,94941.91
2022-12-06T21:36:42.839Z,94936.09
2022-12-06T21:39:12.085Z,94940.69
2022-12-06T21:41:39.056Z,94937.31
2022-12-06T21:44:06.673Z,94932.41
2022-12-06T21:46:33.390Z,94936.81
2022-12-06T21:49:00.664Z,94936.47
2022-12-06T21:51:29.605Z,94941.06
2022-12-06T21:53:56.811Z,94943.22
2022-12-06T21:56:28.964Z,94950.63
2022-12-06T21:58:55.995Z,94939.94
2022-12-06T22:01:27.754Z,94937.91
2022-12-06T22:03:57.093Z,94936.91
2022-12-06T22:06:24.619Z,94939.63
2022-12-06T22:09:04.177Z,94937.41
2022-12-06T22:11:31.140Z,94936.97
2022-12-06T22:13:59.995Z,94935.06
2022-12-06T22:16:27.908Z,94933.53
2022-12-06T22:18:55.252Z,94936.19
2022-12-06T22:21:25.687Z,94933.13
2022-12-06T22:23:53.020Z,94931.00
2022-12-06T22:26:21.920Z,94929.47
2022-12-06T22:28:48.793Z,94926.00
2022-12-06T22:31:16.886Z,94930.16
2022-12-06T22:33:43.986Z,94929.16
2022-12-06T22:36:11.781Z,94932.00
2022-12-06T22:38:38.569Z,94934.44
2022-12-06T22:41:05.969Z,94927.53
2022-12-06T22:43:32.950Z,94932.41
2022-12-06T22:46:08.741Z,94933.44
2022-12-06T22:48:35.922Z,94932.09
2022-12-06T22:51:12.939Z,94934.25
2022-12-06T22:53:41.499Z,94932.81
2022-12-06T22:56:08.934Z,94937.28
2022-12-06T22:58:35.998Z,94928.31
2022-12-06T23:01:16.111Z,94933.50
2022-12-06T23:03:45.375Z,94934.34
2022-12-06T23:06:12.835Z,94931.50
2022-12-06T23:08:39.719Z,94930.69
2022-12-06T23:11:13.482Z,94936.88
2022-12-06T23:13:40.759Z,94935.06
2022-12-06T23:16:10.744Z,94942.91
2022-12-06T23:18:37.544Z,94938.09
2022-12-06T23:21:10.813Z,94937.00
2022-12-06T23:23:39.132Z,94926.41
2022-12-06T23:26:08.560Z,94929.34
2022-12-06T23:28:35.557Z,94928.84
2022-12-06T23:31:07.544Z,94936.78
2022-12-06T23:33:34.597Z,94930.25
2022-12-06T23:36:03.326Z,94927.59
2022-12-06T23:38:29.971Z,94928.31
2022-12-06T23:41:02.121Z,94934.22
2022-12-06T23:43:28.662Z,94931.69
2022-12-06T23:45:58.552Z,94934.06
2022-12-06T23:48:27.907Z,94929.84
2022-12-06T23:51:02.874Z,94925.69
2022-12-06T23:53:30.911Z,94930.78
2022-12-06T23:56:04.542Z,94928.53
2022-12-06T23:58:31.271Z,94934.72
